Time;durP1;ratioP1;P1;durP2;ratioP2;P2;SDS_P1;SDS_P2;PMS_P1;PMS_P2;Temp;Humidity;BMP_temperature;BMP_pressure;BME280_temperature;BME280_humidity;BME280_pressure;Samples;Min_cycle;Max_cycle;Signal;HPM_P1;HPM_P2
2024/01/01 00:01:24;;;;;;;;;5.33;5.33;;;;;8.57;69.20;100361.72;5071454;28;70986;-53
2024/01/01 00:03:49;;;;;;;;;16.33;14.67;;;;;8.57;69.13;100361.72;5071214;28;67087;-50
2024/01/01 00:06:15;;;;;;;;;22.00;18.00;;;;;8.55;68.91;100355.66;5052821;28;45396;-51
2024/01/01 00:08:40;;;;;;;;;20.33;14.67;;;;;8.55;69.24;100362.72;5072072;28;56069;-50
2024/01/01 00:11:05;;;;;;;;;14.67;9.67;;;;;8.52;68.96;100371.69;5064310;28;73083;-50
2024/01/01 00:13:31;;;;;;;;;17.33;10.33;;;;;8.55;69.12;100368.03;5063895;28;45896;-49
2024/01/01 00:15:56;;;;;;;;;6.67;6.33;;;;;8.54;69.31;100353.91;5063296;28;69564;-50
2024/01/01 00:18:22;;;;;;;;;3.00;2.33;;;;;8.53;69.32;100365.44;5047720;28;75063;-49
2024/01/01 00:20:47;;;;;;;;;3.67;2.00;;;;;8.53;69.26;100381.34;5067844;28;45470;-49
2024/01/01 00:23:13;;;;;;;;;7.00;3.00;;;;;8.53;69.36;100377.84;5053683;28;45417;-49
2024/01/01 00:25:39;;;;;;;;;4.00;1.00;;;;;8.52;69.40;100384.09;5067129;28;45800;-48
2024/01/01 00:28:06;;;;;;;;;3.00;2.33;;;;;8.51;69.21;100382.38;5070589;28;45641;-51
2024/01/01 00:30:31;;;;;;;;;3.00;2.00;;;;;8.52;69.11;100381.44;5071771;28;45526;-53
2024/01/01 00:32:56;;;;;;;;;7.00;2.00;;;;;8.51;69.19;100385.84;5070050;28;46808;-53
2024/01/01 00:35:22;;;;;;;;;1.00;1.00;;;;;8.49;69.42;100377.16;5066220;28;61183;-51
2024/01/01 00:37:47;;;;;;;;;0.00;0.00;;;;;8.47;69.59;100380.81;5069900;28;45545;-51
2024/01/01 00:40:12;;;;;;;;;3.00;1.00;;;;;8.47;69.53;100378.16;5053461;28;45406;-52
2024/01/01 00:42:38;;;;;;;;;1.00;1.00;;;;;8.44;69.58;100372.00;5058220;28;66271;-51
2024/01/01 00:45:04;;;;;;;;;2.00;1.00;;;;;8.42;69.41;100371.25;5069582;28;46007;-51
2024/01/01 00:47:30;;;;;;;;;1.33;1.33;;;;;8.43;69.75;100372.09;5068117;28;45485;-51
2024/01/01 00:49:57;;;;;;;;;3.00;1.00;;;;;8.42;69.58;100375.66;5072120;28;46661;-49
2024/01/01 00:52:23;;;;;;;;;1.00;1.00;;;;;8.42;69.77;100370.38;5071924;28;45349;-48
2024/01/01 00:54:48;;;;;;;;;3.00;3.00;;;;;8.41;69.91;100363.38;5074341;28;45473;-51
2024/01/01 00:57:13;;;;;;;;;2.67;1.00;;;;;8.39;69.98;100366.06;5070808;28;45726;-48
2024/01/01 00:59:39;;;;;;;;;3.00;2.00;;;;;8.39;69.97;100373.19;5068682;28;72255;-47
2024/01/01 01:02:04;;;;;;;;;2.00;1.00;;;;;8.39;70.09;100376.69;5069799;28;48787;-47
2024/01/01 01:04:29;;;;;;;;;1.00;1.00;;;;;8.38;70.08;100364.38;5071711;28;60276;-48
2024/01/01 01:06:55;;;;;;;;;3.33;2.67;;;;;8.37;69.84;100365.31;5062866;28;46017;-50
2024/01/01 01:09:21;;;;;;;;;3.00;1.00;;;;;8.34;70.31;100370.72;5066692;28;45502;-48
2024/01/01 01:11:46;;;;;;;;;3.00;1.33;;;;;8.32;70.45;100374.38;5070775;28;45537;-50
2024/01/01 01:14:11;;;;;;;;;8.33;3.00;;;;;8.27;70.64;100364.88;5069825;28;45493;-47
2024/01/01 01:16:37;;;;;;;;;1.00;1.00;;;;;8.24;70.85;100341.19;5071642;28;75683;-49
2024/01/01 01:19:02;;;;;;;;;2.33;2.00;;;;;8.24;71.17;100364.19;5073686;28;63004;-45
2024/01/01 01:21:28;;;;;;;;;2.00;1.00;;;;;8.21;71.00;100356.34;5055194;28;45409;-47
2024/01/01 01:23:54;;;;;;;;;4.00;1.00;;;;;8.19;71.34;100367.03;5070194;28;64054;-48
2024/01/01 01:26:19;;;;;;;;;2.67;1.00;;;;;8.19;70.98;100358.22;5070339;28;46195;-48
2024/01/01 01:28:45;;;;;;;;;2.33;2.33;;;;;8.19;70.70;100363.53;5061659;28;69023;-47
2024/01/01 01:31:10;;;;;;;;;2.00;1.33;;;;;8.17;71.12;100370.69;5054775;28;45411;-48
2024/01/01 01:33:35;;;;;;;;;4.33;2.00;;;;;8.16;71.12;100367.19;5075564;28;69261;-48
2024/01/01 01:36:01;;;;;;;;;2.33;1.33;;;;;8.15;71.04;100373.41;5054642;28;48081;-49
2024/01/01 01:38:26;;;;;;;;;2.33;1.00;;;;;8.15;70.80;100384.00;5067963;28;46540;-47
2024/01/01 01:40:52;;;;;;;;;5.00;2.00;;;;;8.16;71.09;100390.16;5076691;28;45465;-47
2024/01/01 01:43:22;;;;;;;;;1.67;1.67;;;;;8.12;71.37;100386.78;5069665;28;45573;-50
2024/01/01 01:45:49;;;;;;;;;1.67;1.00;;;;;8.13;71.06;100385.84;5066185;28;46327;-47
2024/01/01 01:48:16;;;;;;;;;5.00;2.00;;;;;8.11;70.93;100391.22;5061212;28;45428;-50
2024/01/01 01:50:44;;;;;;;;;1.00;1.00;;;;;8.11;70.98;100398.34;5056961;28;45478;-47
2024/01/01 01:53:11;;;;;;;;;3.33;2.00;;;;;8.11;71.05;100404.47;5074160;28;45850;-49
2024/01/01 01:55:36;;;;;;;;;2.00;1.00;;;;;8.11;71.07;100396.53;5069607;28;47073;-47
2024/01/01 01:58:02;;;;;;;;;1.67;1.00;;;;;8.10;71.11;100392.16;5056845;28;73074;-50
2024/01/01 02:00:27;;;;;;;;;3.00;1.00;;;;;8.11;71.15;100400.97;5072152;28;65188;-47
2024/01/01 02:02:53;;;;;;;;;2.00;2.00;;;;;8.10;71.28;100408.03;5064021;28;67743;-47
2024/01/01 02:05:18;;;;;;;;;1.00;1.00;;;;;8.10;71.15;100405.41;5078806;28;46910;-47
2024/01/01 02:07:45;;;;;;;;;1.33;0.33;;;;;8.10;71.07;100408.03;5072419;28;72281;-47
2024/01/01 02:10:11;;;;;;;;;1.00;1.00;;;;;8.11;71.05;100404.47;5072654;28;45474;-46
2024/01/01 02:12:36;;;;;;;;;5.00;2.00;;;;;8.11;71.16;100408.94;5075753;28;45487;-48
2024/01/01 02:15:02;;;;;;;;;1.00;1.00;;;;;8.09;70.94;100421.38;5072918;28;46089;-47
2024/01/01 02:17:27;;;;;;;;;1.00;1.00;;;;;8.09;70.99;100418.72;5072636;28;45448;-47
2024/01/01 02:19:52;;;;;;;;;4.00;2.00;;;;;8.09;71.09;100424.03;5063767;28;65582;-48
2024/01/01 02:22:18;;;;;;;;;5.00;1.00;;;;;8.09;71.26;100431.97;5065850;28;69415;-46
2024/01/01 02:24:43;;;;;;;;;4.00;1.00;;;;;8.06;71.31;100425.00;5069417;28;45444;-45
2024/01/01 02:27:09;;;;;;;;;3.00;2.00;;;;;8.07;71.28;100434.69;5063562;28;70930;-48
2024/01/01 02:29:34;;;;;;;;;1.33;1.00;;;;;8.05;71.13;100431.25;5073310;28;45892;-46
2024/01/01 02:31:59;;;;;;;;;5.33;2.33;;;;;8.05;71.58;100430.38;5072039;28;69368;-49
2024/01/01 02:34:26;;;;;;;;;2.00;1.00;;;;;8.01;71.44;100424.38;5065396;28;75561;-49
2024/01/01 02:36:53;;;;;;;;;8.33;3.67;;;;;8.01;71.88;100419.06;5070688;28;45430;-49
2024/01/01 02:39:19;;;;;;;;;2.67;1.67;;;;;8.01;71.23;100424.38;5064406;28;45405;-46
2024/01/01 02:41:44;;;;;;;;;2.00;2.00;;;;;7.98;71.62;100432.47;5073775;28;54258;-48
2024/01/01 02:44:09;;;;;;;;;2.33;1.00;;;;;7.97;71.01;100420.16;5068269;28;45446;-51
2024/01/01 02:46:35;;;;;;;;;0.00;0.00;;;;;7.97;71.35;100428.09;5075690;28;73646;-51
2024/01/01 02:49:00;;;;;;;;;1.67;0.00;;;;;7.99;71.51;100426.25;5052909;28;46119;-50
2024/01/01 02:51:25;;;;;;;;;3.67;1.00;;;;;8.01;71.49;100434.13;5070577;28;45446;-50
2024/01/01 02:53:51;;;;;;;;;3.00;1.67;;;;;8.00;71.34;100438.53;5069655;28;56711;-49
2024/01/01 02:56:21;;;;;;;;;1.00;1.00;;;;;8.00;71.55;100442.97;5071688;28;69076;-48
2024/01/01 02:58:47;;;;;;;;;0.67;0.67;;;;;8.02;71.37;100443.78;5075462;28;45495;-49
2024/01/01 03:01:12;;;;;;;;;0.00;0.00;;;;;8.05;71.39;100447.13;5072136;28;45466;-46
2024/01/01 03:03:38;;;;;;;;;3.00;1.33;;;;;8.03;71.40;100437.53;5071805;28;63002;-49
2024/01/01 03:06:03;;;;;;;;;4.00;1.00;;;;;8.03;71.17;100437.53;5075048;28;73398;-51
2024/01/01 03:08:29;;;;;;;;;2.00;1.00;;;;;8.01;71.22;100442.91;5077741;28;46362;-52
2024/01/01 03:10:54;;;;;;;;;2.00;1.00;;;;;8.01;71.37;100445.56;5071408;28;45434;-47
2024/01/01 03:13:20;;;;;;;;;3.33;1.00;;;;;8.02;71.33;100447.28;5067735;28;74480;-49
2024/01/01 03:15:45;;;;;;;;;1.67;0.33;;;;;8.02;71.32;100452.59;5047206;28;45544;-48
2024/01/01 03:18:17;;;;;;;;;4.00;1.00;;;;;8.05;71.41;100456.88;5064242;28;68839;-50
2024/01/01 03:20:42;;;;;;;;;2.00;1.00;;;;;8.05;71.23;100455.09;5071902;28;45451;-50
2024/01/01 03:23:07;;;;;;;;;1.33;1.00;;;;;8.07;71.08;100463.84;5066278;28;45642;-47
2024/01/01 03:25:33;;;;;;;;;5.00;1.33;;;;;8.12;71.03;100463.59;5060643;28;73124;-49
2024/01/01 03:27:58;;;;;;;;;1.00;1.00;;;;;8.14;70.81;100458.25;5071946;28;45680;-49
2024/01/01 03:30:24;;;;;;;;;5.00;1.00;;;;;8.15;70.93;100462.59;5076089;28;52105;-48
2024/01/01 03:32:50;;;;;;;;;5.67;2.00;;;;;8.13;70.69;100460.03;5068371;28;45996;-46
2024/01/01 03:35:19;;;;;;;;;2.00;2.00;;;;;8.10;70.74;100460.19;5060821;28;45455;-46
2024/01/01 03:37:44;;;;;;;;;2.00;1.67;;;;;8.07;70.94;100466.47;5069386;28;45214;-46
2024/01/01 03:40:10;;;;;;;;;3.00;1.00;;;;;8.03;70.87;100469.31;5070224;28;45362;-49
2024/01/01 03:42:36;;;;;;;;;3.67;1.67;;;;;8.03;70.86;100482.56;5070403;28;49780;-48
2024/01/01 03:45:01;;;;;;;;;8.33;3.00;;;;;8.01;71.01;100489.75;5070231;28;64287;-47
2024/01/01 03:47:27;;;;;;;;;1.00;1.00;;;;;8.00;70.95;100495.97;5077879;28;45607;-46
2024/01/01 03:49:53;;;;;;;;;2.33;1.00;;;;;7.99;70.92;100497.75;5072747;28;45379;-50
2024/01/01 03:52:18;;;;;;;;;1.00;1.00;;;;;7.95;70.92;100496.16;5055926;28;46125;-51
2024/01/01 03:54:43;;;;;;;;;2.00;1.00;;;;;7.92;71.00;100493.63;5071488;28;73139;-46
2024/01/01 03:57:09;;;;;;;;;0.00;0.00;;;;;7.90;71.14;100498.13;5071704;28;45683;-48
2024/01/01 03:59:35;;;;;;;;;0.00;0.00;;;;;7.86;70.94;100493.91;5062770;28;70549;-46
2024/01/01 04:02:00;;;;;;;;;0.00;0.00;;;;;7.85;71.18;100492.19;5056747;28;48288;-47
2024/01/01 04:04:25;;;;;;;;;4.33;0.00;;;;;7.83;71.28;100488.75;5067695;28;45340;-50
2024/01/01 04:06:51;;;;;;;;;1.67;0.67;;;;;7.82;71.02;100505.56;5067818;28;64365;-49
2024/01/01 04:09:18;;;;;;;;;5.67;1.00;;;;;7.81;70.84;100496.78;5074812;28;46671;-49
2024/01/01 04:11:43;;;;;;;;;3.00;1.00;;;;;7.79;71.07;100501.25;5073915;28;46150;-48
2024/01/01 04:14:09;;;;;;;;;3.00;1.33;;;;;7.77;71.17;100495.19;5069567;28;62536;-48
2024/01/01 04:16:34;;;;;;;;;1.67;0.00;;;;;7.75;71.13;100502.31;5075747;28;69401;-50
2024/01/01 04:18:59;;;;;;;;;0.00;0.00;;;;;7.74;71.04;100501.47;5064805;28;45616;-46
2024/01/01 04:21:25;;;;;;;;;2.33;0.00;;;;;7.73;70.83;100509.44;5072697;28;46366;-48
2024/01/01 04:23:50;;;;;;;;;0.00;0.00;;;;;7.70;70.99;100515.75;5066960;28;72006;-49
2024/01/01 04:26:15;;;;;;;;;3.00;1.00;;;;;7.68;70.87;100517.63;5061164;28;45382;-48
2024/01/01 04:28:41;;;;;;;;;2.00;0.00;;;;;7.68;70.98;100527.31;5075952;28;61485;-48
2024/01/01 04:31:06;;;;;;;;;0.67;0.00;;;;;7.68;70.83;100522.91;5080024;28;45532;-50
2024/01/01 04:33:32;;;;;;;;;3.00;0.00;;;;;7.68;70.83;100527.31;5051978;28;45411;-48
2024/01/01 04:35:57;;;;;;;;;1.00;0.00;;;;;7.67;70.63;100523.81;5076618;28;68898;-48
2024/01/01 04:38:22;;;;;;;;;1.00;1.00;;;;;7.65;70.57;100519.53;5071461;28;58308;-46
2024/01/01 04:40:48;;;;;;;;;0.67;0.00;;;;;7.64;70.58;100525.72;5066135;28;71291;-49
2024/01/01 04:43:13;;;;;;;;;3.67;1.00;;;;;7.64;70.58;100531.03;5073712;28;45369;-47
2024/01/01 04:45:38;;;;;;;;;3.00;0.00;;;;;7.64;70.67;100536.31;5079085;28;45640;-46
2024/01/01 04:48:04;;;;;;;;;1.00;1.00;;;;;7.61;70.55;100526.72;5072852;28;45565;-46
2024/01/01 04:50:31;;;;;;;;;0.00;0.00;;;;;7.61;70.64;100532.91;5068949;28;46058;-47
2024/01/01 04:52:56;;;;;;;;;1.00;0.00;;;;;7.58;70.50;100524.22;5077296;28;45435;-49
2024/01/01 04:55:22;;;;;;;;;0.00;0.00;;;;;7.58;70.49;100530.34;5075734;28;45486;-47
2024/01/01 04:57:47;;;;;;;;;0.00;0.00;;;;;7.59;70.51;100539.19;5075808;28;70547;-48
2024/01/01 05:00:14;;;;;;;;;2.67;0.00;;;;;7.56;70.25;100534.88;5060716;28;47007;-49
2024/01/01 05:02:39;;;;;;;;;0.00;0.00;;;;;7.55;70.40;100538.44;5075913;28;45707;-49
2024/01/01 05:05:05;;;;;;;;;2.00;0.33;;;;;7.55;70.57;100537.59;5073304;28;69383;-46
2024/01/01 05:07:31;;;;;;;;;0.00;0.00;;;;;7.54;70.43;100538.50;5072827;28;45427;-47
2024/01/01 05:09:56;;;;;;;;;2.00;1.00;;;;;7.54;70.30;100546.44;5048704;28;48432;-46
2024/01/01 05:12:21;;;;;;;;;0.67;0.67;;;;;7.52;70.32;100537.69;5080691;28;45516;-52
2024/01/01 05:14:47;;;;;;;;;3.00;2.00;;;;;7.52;70.38;100548.28;5057886;28;69277;-47
2024/01/01 05:17:12;;;;;;;;;0.00;0.00;;;;;7.49;70.30;100561.66;5077332;28;68145;-46
2024/01/01 05:19:37;;;;;;;;;1.67;1.00;;;;;7.47;70.40;100552.91;5073271;28;45921;-47
2024/01/01 05:22:04;;;;;;;;;0.00;0.00;;;;;7.45;70.43;100559.13;5078972;28;60681;-46
2024/01/01 05:24:29;;;;;;;;;1.00;1.00;;;;;7.47;70.44;100569.66;5055192;28;45434;-47
2024/01/01 05:26:54;;;;;;;;;0.00;0.00;;;;;7.47;70.54;100567.03;5073546;28;45446;-49
2024/01/01 05:29:20;;;;;;;;;1.00;1.00;;;;;7.48;70.62;100562.56;5074860;28;63679;-49
2024/01/01 05:31:45;;;;;;;;;1.33;0.67;;;;;7.47;70.41;100564.38;5078415;28;46045;-48
2024/01/01 05:34:10;;;;;;;;;1.33;0.00;;;;;7.46;70.44;100570.59;5073649;28;68320;-46
2024/01/01 05:36:36;;;;;;;;;1.00;0.00;;;;;7.45;70.52;100577.66;5069252;28;61406;-48
2024/01/01 05:39:01;;;;;;;;;3.00;0.33;;;;;7.45;70.56;100577.66;5058721;28;45494;-51
2024/01/01 05:41:26;;;;;;;;;0.00;0.00;;;;;7.46;70.48;100567.94;5078236;28;52968;-47
2024/01/01 05:43:52;;;;;;;;;1.33;0.00;;;;;7.42;70.63;100572.47;5071500;28;45427;-51
2024/01/01 05:46:17;;;;;;;;;1.33;0.00;;;;;7.42;70.71;100572.47;5079656;28;45391;-50
2024/01/01 05:48:42;;;;;;;;;0.33;0.33;;;;;7.40;70.62;100576.97;5070852;28;46138;-49
2024/01/01 05:51:09;;;;;;;;;0.00;0.00;;;;;7.39;70.52;100580.56;5075115;28;72206;-48
2024/01/01 05:53:34;;;;;;;;;2.67;0.00;;;;;7.37;70.65;100574.44;5077347;28;45569;-47
2024/01/01 05:55:59;;;;;;;;;0.00;0.00;;;;;7.37;70.69;100576.25;5069272;28;70231;-50
2024/01/01 05:58:25;;;;;;;;;4.00;1.67;;;;;7.35;70.47;100581.56;5071156;28;74567;-46
2024/01/01 06:00:50;;;;;;;;;1.33;0.00;;;;;7.37;70.92;100585.03;5071715;28;73223;-46
2024/01/01 06:03:15;;;;;;;;;2.00;0.00;;;;;7.37;70.71;100592.97;5072569;28;46531;-46
2024/01/01 06:05:41;;;;;;;;;0.00;0.00;;;;;7.37;70.74;100589.47;5079279;28;45275;-47
2024/01/01 06:08:06;;;;;;;;;0.00;0.00;;;;;7.38;70.85;100585.88;5068815;28;70772;-47
2024/01/01 06:10:32;;;;;;;;;2.00;0.00;;;;;7.38;70.79;100596.47;5056310;28;45558;-46
2024/01/01 06:12:57;;;;;;;;;0.00;0.00;;;;;7.38;70.77;100592.06;5077783;28;45567;-47
2024/01/01 06:15:27;;;;;;;;;1.00;0.00;;;;;7.37;71.03;100594.78;5077239;28;45457;-46
2024/01/01 06:17:52;;;;;;;;;2.00;0.00;;;;;7.36;70.89;100595.69;5067428;28;46419;-48
2024/01/01 06:20:18;;;;;;;;;0.33;0.00;;;;;7.37;70.87;100595.63;5071317;28;45350;-48
2024/01/01 06:22:46;;;;;;;;;0.00;0.00;;;;;7.37;70.74;100597.41;5062707;28;69371;-52
2024/01/01 06:25:11;;;;;;;;;0.00;0.00;;;;;7.37;70.95;100602.72;5072336;28;46108;-49
2024/01/01 06:27:37;;;;;;;;;0.00;0.00;;;;;7.35;70.99;100602.75;5069211;28;45534;-48
2024/01/01 06:30:04;;;;;;;;;1.00;0.00;;;;;7.35;70.81;100610.69;5056708;28;45414;-49
2024/01/01 06:32:29;;;;;;;;;1.00;0.00;;;;;7.35;70.95;100613.34;5065682;28;45524;-51
2024/01/01 06:34:54;;;;;;;;;1.33;0.00;;;;;7.36;71.03;100614.22;5075694;28;70458;-50
2024/01/01 06:37:19;;;;;;;;;0.00;0.00;;;;;7.35;71.02;100626.56;5071574;28;70990;-47
2024/01/01 06:39:45;;;;;;;;;1.00;1.00;;;;;7.35;70.97;100631.00;5076805;28;71072;-49
2024/01/01 06:42:10;;;;;;;;;1.00;0.33;;;;;7.35;71.11;100625.72;5074716;28;69299;-47
2024/01/01 06:44:35;;;;;;;;;0.00;0.00;;;;;7.35;71.12;100621.28;5074368;28;45771;-48
2024/01/01 06:47:03;;;;;;;;;0.00;0.00;;;;;7.34;71.18;100634.56;5075476;28;75663;-47
2024/01/01 06:49:28;;;;;;;;;1.67;0.67;;;;;7.34;71.21;100643.38;5066735;28;45373;-47
2024/01/01 06:51:53;;;;;;;;;0.00;0.00;;;;;7.35;71.26;100641.59;5059569;28;46563;-47
2024/01/01 06:54:19;;;;;;;;;1.00;0.00;;;;;7.35;71.28;100653.03;5066218;28;45517;-49
2024/01/01 06:56:44;;;;;;;;;0.67;0.67;;;;;7.33;71.55;100649.59;5070763;28;74801;-52
2024/01/01 06:59:12;;;;;;;;;0.00;0.00;;;;;7.33;71.33;100649.59;5069216;28;53765;-48
2024/01/01 07:01:37;;;;;;;;;1.67;0.00;;;;;7.34;71.32;100651.31;5078187;28;45458;-49
2024/01/01 07:04:02;;;;;;;;;0.00;0.00;;;;;7.35;71.23;100660.13;5064444;28;68859;-47
2024/01/01 07:06:28;;;;;;;;;2.00;1.00;;;;;7.32;71.69;100663.75;5075749;28;46067;-47
2024/01/01 07:08:53;;;;;;;;;0.00;0.00;;;;;7.33;71.52;100669.91;5075462;28;45421;-47
2024/01/01 07:11:19;;;;;;;;;3.00;0.00;;;;;7.33;71.63;100675.22;5072579;28;68244;-47
2024/01/01 07:13:44;;;;;;;;;0.00;0.00;;;;;7.34;71.67;100690.13;5071870;28;45386;-49
2024/01/01 07:16:09;;;;;;;;;0.00;0.00;;;;;7.33;71.68;100697.22;5070683;28;45783;-47
2024/01/01 07:18:35;;;;;;;;;1.00;0.00;;;;;7.33;71.44;100691.09;5072543;28;45476;-48
2024/01/01 07:21:00;;;;;;;;;2.00;1.00;;;;;7.34;71.49;100700.72;5066873;28;45455;-48
2024/01/01 07:23:26;;;;;;;;;2.00;0.00;;;;;7.31;71.66;100699.06;5073225;28;45375;-49
2024/01/01 07:25:51;;;;;;;;;2.00;1.00;;;;;7.31;71.70;100699.06;5067103;28;46165;-50
2024/01/01 07:28:17;;;;;;;;;4.33;1.00;;;;;7.34;71.63;100698.06;5067052;28;73068;-48
2024/01/01 07:30:42;;;;;;;;;0.00;0.00;;;;;7.32;71.76;100705.22;5052228;28;45420;-47
2024/01/01 07:33:07;;;;;;;;;1.00;0.67;;;;;7.31;71.78;100706.13;5073075;28;69597;-50
2024/01/01 07:35:32;;;;;;;;;0.00;0.00;;;;;7.32;71.59;100703.44;5075365;28;75849;-48
2024/01/01 07:37:59;;;;;;;;;3.33;1.00;;;;;7.30;71.75;100702.66;5074968;28;59464;-48
2024/01/01 07:40:24;;;;;;;;;0.67;0.67;;;;;7.32;71.89;100705.22;5059391;28;45494;-50
2024/01/01 07:42:50;;;;;;;;;3.00;0.00;;;;;7.31;71.80;100722.88;5067554;28;52929;-49
2024/01/01 07:45:15;;;;;;;;;0.33;0.00;;;;;7.29;72.03;100719.44;5072171;28;74136;-50
2024/01/01 07:47:40;;;;;;;;;4.00;1.00;;;;;7.30;71.94;100723.81;5069996;28;45344;-50
2024/01/01 07:50:07;;;;;;;;;1.33;0.33;;;;;7.30;71.97;100729.09;5066810;28;68227;-48
2024/01/01 07:52:32;;;;;;;;;0.33;0.00;;;;;7.29;71.99;100732.66;5065139;28;45539;-49
2024/01/01 07:54:58;;;;;;;;;1.00;0.00;;;;;7.28;72.00;100728.28;5068920;28;46297;-49
2024/01/01 07:57:26;;;;;;;;;0.00;0.00;;;;;7.30;72.16;100729.09;5064972;28;48115;-51
2024/01/01 07:59:55;;;;;;;;;4.00;0.00;;;;;7.34;72.04;100741.28;5064323;28;69377;-47
2024/01/01 08:02:20;;;;;;;;;0.33;0.33;;;;;7.36;72.16;100741.22;5072306;28;45800;-49
2024/01/01 08:04:46;;;;;;;;;2.00;0.00;;;;;7.38;72.12;100742.00;5080020;28;45335;-49
2024/01/01 08:07:11;;;;;;;;;1.00;0.00;;;;;7.41;71.87;100744.56;5073514;28;51895;-51
2024/01/01 08:09:37;;;;;;;;;0.33;0.33;;;;;7.43;71.88;100748.00;5080057;28;45485;-48
2024/01/01 08:12:02;;;;;;;;;0.00;0.00;;;;;7.47;72.03;100767.28;5069926;28;63441;-49
2024/01/01 08:14:27;;;;;;;;;0.00;0.00;;;;;7.51;72.16;100769.78;5078625;28;46076;-48
2024/01/01 08:16:53;;;;;;;;;0.00;0.00;;;;;7.58;71.69;100760.66;5074488;28;61049;-48
2024/01/01 08:19:18;;;;;;;;;1.67;1.00;;;;;7.61;72.01;100765.84;5078857;28;66536;-51
2024/01/01 08:21:43;;;;;;;;;0.00;0.00;;;;;7.66;72.01;100767.47;5049620;28;67738;-51
2024/01/01 08:24:09;;;;;;;;;3.33;0.00;;;;;7.71;71.97;100770.78;5072596;28;46236;-50
2024/01/01 08:26:34;;;;;;;;;0.33;0.33;;;;;7.74;71.77;100775.97;5055155;28;60458;-48
2024/01/01 08:28:59;;;;;;;;;0.00;0.00;;;;;7.77;71.47;100779.34;5075891;28;64623;-51
2024/01/01 08:31:24;;;;;;;;;0.67;0.00;;;;;7.81;71.50;100789.81;5078613;28;65426;-48
2024/01/01 08:33:50;;;;;;;;;1.00;0.00;;;;;7.82;71.47;100786.25;5070116;28;74588;-50
2024/01/01 08:36:15;;;;;;;;;1.00;1.00;;;;;7.84;71.35;100789.72;5057416;28;45442;-48
2024/01/01 08:38:41;;;;;;;;;0.00;0.00;;;;;7.85;71.24;100797.59;5078518;28;45651;-48
2024/01/01 08:41:06;;;;;;;;;0.00;0.00;;;;;7.88;71.39;100804.56;5075980;28;45525;-47
2024/01/01 08:43:32;;;;;;;;;2.67;0.67;;;;;7.91;71.04;100804.44;5071835;28;46248;-47
2024/01/01 08:46:00;;;;;;;;;0.00;0.00;;;;;7.93;71.12;100813.19;5049498;28;66575;-48
2024/01/01 08:48:25;;;;;;;;;0.00;0.00;;;;;7.97;70.97;100816.59;5073643;28;45487;-50
2024/01/01 08:50:50;;;;;;;;;0.67;0.00;;;;;8.00;71.21;100812.03;5063923;28;45482;-48
2024/01/01 08:53:16;;;;;;;;;0.00;0.00;;;;;8.05;71.21;100818.00;5069765;28;66749;-50
2024/01/01 08:55:41;;;;;;;;;0.00;0.00;;;;;8.09;71.01;100819.59;5068669;28;62555;-50
2024/01/01 08:58:07;;;;;;;;;2.00;0.00;;;;;8.17;71.08;100821.09;5075783;28;45726;-49
2024/01/01 09:00:32;;;;;;;;;0.67;0.67;;;;;8.22;71.02;100820.00;5066831;28;70291;-51
2024/01/01 09:02:58;;;;;;;;;0.00;0.00;;;;;8.26;70.55;100816.28;5074015;28;74508;-48
2024/01/01 09:05:23;;;;;;;;;2.00;0.00;;;;;8.31;70.68;100815.25;5070411;28;45502;-50
2024/01/01 09:07:49;;;;;;;;;0.00;0.00;;;;;8.36;70.56;100821.25;5071225;28;45347;-48
2024/01/01 09:10:16;;;;;;;;;2.00;0.33;;;;;8.38;70.10;100824.69;5075713;28;45893;-48
2024/01/01 09:12:41;;;;;;;;;1.00;1.00;;;;;8.42;70.44;100826.28;5078274;28;47052;-46
2024/01/01 09:15:07;;;;;;;;;1.00;0.00;;;;;8.51;70.44;100817.97;5077183;28;68715;-48
2024/01/01 09:17:32;;;;;;;;;1.33;1.00;;;;;8.61;70.29;100818.47;5076571;28;45485;-48
2024/01/01 09:19:58;;;;;;;;;1.00;1.00;;;;;8.68;69.73;100825.25;5052887;28;47447;-48
2024/01/01 09:22:23;;;;;;;;;4.33;2.00;;;;;8.76;69.65;100823.13;5068133;28;75534;-49
2024/01/01 09:24:48;;;;;;;;;0.00;0.00;;;;;8.81;69.53;100833.53;5070273;28;62649;-50
2024/01/01 09:27:14;;;;;;;;;0.67;0.00;;;;;8.85;69.18;100839.59;5067184;28;61107;-51
2024/01/01 09:29:39;;;;;;;;;0.00;0.00;;;;;8.92;69.57;100841.91;5068477;28;45555;-51
2024/01/01 09:32:05;;;;;;;;;0.00;0.00;;;;;9.00;69.44;100844.25;5076101;28;75761;-50
2024/01/01 09:34:30;;;;;;;;;0.00;0.00;;;;;9.07;69.12;100835.09;5063128;28;45527;-48
2024/01/01 09:36:55;;;;;;;;;0.00;0.00;;;;;9.10;68.57;100850.88;5071980;28;46543;-51
2024/01/01 09:39:21;;;;;;;;;2.00;0.00;;;;;9.16;68.83;100848.91;5068938;28;66895;-48
2024/01/01 09:41:46;;;;;;;;;2.00;2.00;;;;;9.17;68.38;100851.47;5070634;28;46606;-47
2024/01/01 09:44:12;;;;;;;;;0.00;0.00;;;;;9.18;68.67;100847.91;5064677;28;63930;-52
2024/01/01 09:46:38;;;;;;;;;0.00;0.00;;;;;9.20;68.45;100859.28;5074021;28;45541;-52
2024/01/01 09:49:04;;;;;;;;;1.00;1.00;;;;;9.20;68.41;100853.97;5070418;28;45596;-49
2024/01/01 09:51:30;;;;;;;;;1.00;1.00;;;;;9.22;68.66;100857.44;5070856;28;46874;-50
2024/01/01 09:53:55;;;;;;;;;2.33;1.00;;;;;9.23;68.33;100861.84;5078939;28;45488;-50
2024/01/01 09:56:21;;;;;;;;;1.33;1.00;;;;;9.27;68.41;100862.56;5068555;28;45465;-51
2024/01/01 09:58:47;;;;;;;;;1.00;0.00;;;;;9.30;68.02;100869.53;5065655;28;45653;-48
2024/01/01 10:01:15;;;;;;;;;2.00;0.67;;;;;9.34;68.14;100860.50;5067283;28;45633;-51
2024/01/01 10:03:41;;;;;;;;;0.00;0.00;;;;;9.33;68.00;100861.44;5068494;28;45474;-50
2024/01/01 10:06:08;;;;;;;;;3.00;1.00;;;;;9.37;68.30;100861.25;5068088;28;45762;-51
2024/01/01 10:08:34;;;;;;;;;0.00;0.00;;;;;9.38;67.99;100862.09;5070639;28;45644;-49
2024/01/01 10:11:18;;;;;;;;;0.00;0.00;;;;;9.40;68.09;100858.44;5060204;28;46072;-50
2024/01/01 10:13:44;;;;;;;;;3.67;0.00;;;;;9.42;67.76;100853.91;5056562;28;46026;-49
2024/01/01 10:16:09;;;;;;;;;1.00;1.00;;;;;9.47;68.19;100867.00;5072122;28;58254;-50
2024/01/01 10:18:35;;;;;;;;;2.00;0.00;;;;;9.52;67.73;100862.34;5072330;28;45599;-49
2024/01/01 10:21:11;;;;;;;;;3.67;0.33;;;;;9.58;67.87;100855.88;5075725;28;45490;-49
2024/01/01 10:23:37;;;;;;;;;0.67;0.67;;;;;9.64;67.62;100855.63;5073581;28;45360;-48
2024/01/01 10:26:08;;;;;;;;;1.00;1.00;;;;;9.72;67.92;100866.75;5067589;28;45316;-56
2024/01/01 10:28:34;;;;;;;;;0.00;0.00;;;;;9.83;68.02;100860.06;5079651;28;45437;-52
2024/01/01 10:31:00;;;;;;;;;0.00;0.00;;;;;9.94;67.53;100858.66;5073115;28;46083;-49
2024/01/01 10:33:28;;;;;;;;;1.00;0.00;;;;;10.09;67.44;100862.41;5075577;28;45723;-50
2024/01/01 10:35:53;;;;;;;;;0.00;0.00;;;;;10.16;66.36;100862.13;5065787;28;45435;-49
2024/01/01 10:38:19;;;;;;;;;0.33;0.33;;;;;10.21;66.85;100857.44;5078727;28;45399;-48
2024/01/01 10:40:46;;;;;;;;;0.00;0.00;;;;;10.28;66.14;100848.22;5051711;28;46332;-47
2024/01/01 10:43:12;;;;;;;;;1.00;1.00;;;;;10.30;66.30;100842.84;5077867;28;45718;-49
2024/01/01 10:45:38;;;;;;;;;0.00;0.00;;;;;10.30;66.17;100849.03;5073829;28;45402;-48
2024/01/01 10:48:06;;;;;;;;;0.00;0.00;;;;;10.30;65.83;100837.50;5073228;28;45581;-47
2024/01/01 10:50:32;;;;;;;;;1.33;1.00;;;;;10.27;66.07;100846.50;5074566;28;45426;-48
2024/01/01 10:53:21;;;;;;;;;2.00;1.67;;;;;10.24;66.43;100849.31;5053585;28;45754;-48
2024/01/01 10:56:00;;;;;;;;;1.00;1.00;;;;;10.25;66.37;100856.38;5054891;28;45676;-48
2024/01/01 10:58:47;;;;;;;;;0.00;0.00;;;;;10.24;66.17;100852.81;5056730;28;45470;-52
2024/01/01 11:01:15;;;;;;;;;1.00;1.00;;;;;10.26;66.39;100850.97;5068630;28;46354;-49
2024/01/01 11:03:41;;;;;;;;;2.00;0.00;;;;;10.25;66.43;100849.22;5067047;28;45850;-49
2024/01/01 11:06:27;;;;;;;;;0.33;0.33;;;;;10.29;66.62;100854.44;5069472;28;45495;-50
2024/01/01 11:08:54;;;;;;;;;0.00;0.00;;;;;10.33;66.33;100845.38;5069417;28;45514;-50
2024/01/01 11:11:32;;;;;;;;;0.00;0.00;;;;;10.34;65.91;100850.59;5058145;28;47123;-49
2024/01/01 11:13:59;;;;;;;;;1.00;0.00;;;;;10.35;66.27;100855.03;5070387;27;45354;-52
2024/01/01 11:16:25;;;;;;;;;1.00;1.00;;;;;10.42;66.49;100858.25;5066722;28;45493;-49
2024/01/01 11:18:51;;;;;;;;;3.00;1.00;;;;;10.48;66.21;100857.94;5067686;28;45548;-50
2024/01/01 11:21:27;;;;;;;;;1.00;1.00;;;;;10.61;66.29;100850.19;5058902;28;46187;-47
2024/01/01 11:23:53;;;;;;;;;0.00;0.00;;;;;10.74;66.16;100851.34;5063275;28;45510;-48
2024/01/01 11:26:32;;;;;;;;;0.33;0.00;;;;;10.84;65.66;100851.72;5069445;28;69410;-49